• Join FlightAware (Why Join?)
  • Login
  • US Flag 
12:32PM EDT


 

Airport Tracker/Info


-or-


 

Live Flight TrackerFlight Track Log ✈ TPA702 ✈ 17-May-2013 ✈ SKRG / MDE - KMIA

Flight Track Log - Related Links

Times and Time Zones

All times are in EDT time to prevent confusion due to time zone crossing. See the TPA702 flight status page for this flight to view local times or setup timezone preferences in your user account.

Time Position Orientation Groundspeed Altitude Reporting Facility
EDT Latitude Longitude Course Direction KTS MPH feet Rate Location/Type
09:39PM 22.5972 -78.7714 347° North 475 547 38,000  Level Miami Center
09:40PM 22.7200 -78.7933 351° North 457 526 38,000  Level Miami Center
09:41PM 22.8431 -78.8222 348° North 457 526 38,000  Level Miami Center
09:42PM 8.4007 -75.9365 347° North  Level Estimated
09:42PM 22.9639 -78.8489 349° North 443 510 38,000  Level Miami Center
09:43PM 8.5168 -75.9633 347° North  Level Estimated
09:43PM 23.0908 -78.8803 347° North 449 517 38,000  Level Miami Center
09:44PM 8.6328 -75.9901 347° North  Level Estimated
09:44PM 23.2158 -78.9092 348° North 442 509 38,000  Level Miami Center
09:45PM 23.3389 -78.9294 351° North 456 525 38,000  Level Miami Center
09:46PM 23.4636 -78.9608 347° North 452 520 38,000  Level Miami Center
09:47PM 23.5825 -78.9808 351° North 445 512 38,000  Level Miami Center
09:48PM 23.7075 -79.0103 348° North 445 512 38,000  Level Miami Center
09:49PM 23.8325 -79.0397 348° North 450 518 38,000  Level Miami Center
09:50PM 23.9575 -79.0644 350° North 439 505 38,000  Level Miami Center
09:51PM 24.0758 -79.1097 341° North 445 512 38,000 -1,380 Level Miami Center
09:52PM 24.1900 -79.1619 337° Northwest 445 512 35,300 -2,880 Descending Miami Center
09:53PM 24.3042 -79.2164 337° Northwest 450 518 32,200 -1,680 Descending Miami Center
09:54PM 24.4286 -79.2689 339° North 456 525 32,000 -600 Descending Miami Center
09:55PM 24.5489 -79.3239 337° Northwest 456 525 31,100 -2,280 Descending Miami Center
10:01PM 25.2160 -79.6450 337° Northwest 404 465 16,400 -2,460 Descending FlightAware
10:01PM 25.2810 -79.6760 337° Northwest 385 443 15,200 -2,520 Descending FlightAware
10:02PM 25.3570 -79.7120 337° Northwest 372 428 12,900 -2,520 Descending FlightAware
10:03PM 25.4090 -79.7520 325° Northwest 338 389 11,700 -1,380 Descending FlightAware
10:03PM 25.4490 -79.8140 306° West 331 381 11,000 -780 Descending FlightAware
10:04PM 25.4860 -79.8700 306° West 306 352 10,600 -720 Descending FlightAware
10:05PM 25.5170 -79.9180 306° West 287 330 10,100 -780 Descending FlightAware
10:05PM 25.5410 -79.9540 306° West 284 327 9,700 -720 Descending FlightAware
10:06PM 25.5650 -79.9900 306° West 284 327 9,400 -660 Descending FlightAware
10:06PM 25.5840 -80.0200 305° West 278 320 9,100 -660 Descending FlightAware
10:07PM 25.6070 -80.0550 306° West 282 325 8,800 -660 Descending FlightAware
10:07PM 25.6260 -80.0840 306° West 279 321 8,500 -660 Descending FlightAware
10:08PM 25.6500 -80.1190 307° West 280 322 8,200 -540 Descending FlightAware
10:08PM 25.6670 -80.1560 297° West 261 300 8,000 -480 Descending FlightAware
10:09PM 25.6750 -80.1870 286° West 248 285 7,800 -720 Descending FlightAware
10:09PM 25.6830 -80.2170 286° West 237 273 7,400 -780 Descending FlightAware
10:09PM 25.6920 -80.2500 287° West 235 270 7,100 -720 Descending FlightAware
10:10PM 25.6960 -80.2680 284° West 226 260 6,900 -960 Descending FlightAware
10:10PM 25.7050 -80.3000 287° West 204 235 6,400 -780 Descending FlightAware
10:11PM 25.7100 -80.3240 283° West 189 217 6,200 -660 Descending FlightAware
10:11PM 25.7090 -80.3500 268° West 176 203 5,800 -1,020 Descending FlightAware
10:12PM 25.7080 -80.3740 267° West 179 206 5,300 -1,020 Descending FlightAware
10:12PM 25.7070 -80.4020 268° West 181 208 4,900 -780 Descending FlightAware
10:12PM 25.7050 -80.4260 265° West 181 208 4,600 -600 Descending FlightAware
10:13PM 25.7050 -80.4400 270° West 182 209 4,500 -540 Descending FlightAware
10:13PM 25.7030 -80.4670 265° West 185 213 4,200 -660 Descending FlightAware
10:14PM 25.7080 -80.4900 284° West 182 209 3,900 -1,080 Descending FlightAware
10:14PM 25.7180 -80.4960 332° Northwest 184 212 3,500 -1,440 Descending FlightAware
10:14PM 25.7330 -80.4990 350° North 181 208 3,200 -780 Descending FlightAware
10:15PM 25.7630 -80.4870 20° North 173 199 2,800 -540 Descending FlightAware
10:15PM 25.7780 -80.4660 52° Northeast 171 197 2,600 -720 Descending FlightAware
10:16PM 25.7800 -80.4540 80° East 168 193 2,300 -1,020 Descending FlightAware
10:16PM 25.7820 -80.4200 86° East 159 183 1,700 -840 Descending FlightAware
10:17PM 25.7820 -80.4010 90° East 141 162 1,400 -360 Descending FlightAware
10:17PM 25.7830 -80.3850 86° East 141 162 1,400 -720 Level FlightAware
10:18PM 25.7850 -80.3510 86° East 134 154 500 -900 Descending FlightAware
10:18PM 25.7860 -80.3280 87° East 135 155 200 -300 Descending FlightAware
10:19PM 25.7860 -80.3120 90° East 135 155 200  Level FlightAware